sensor_id;sensor_type;location;lat;lon;timestamp;pressure;altitude;pressure_sealevel;temperature;humidity
73106;BME280;61559;50.476;15.588;2023-06-24T00:01:45;97898.86;;;17.30;76.36
73106;BME280;61559;50.476;15.588;2023-06-24T00:04:14;97895.09;;;17.31;75.68
73106;BME280;61559;50.476;15.588;2023-06-24T00:06:47;97898.97;;;17.31;74.92
73106;BME280;61559;50.476;15.588;2023-06-24T00:09:15;97897.17;;;17.31;73.40
73106;BME280;61559;50.476;15.588;2023-06-24T00:11:45;97899.89;;;17.29;72.97
73106;BME280;61559;50.476;15.588;2023-06-24T00:14:14;97904.12;;;17.29;72.42
73106;BME280;61559;50.476;15.588;2023-06-24T00:16:42;97905.45;;;17.28;72.02
73106;BME280;61559;50.476;15.588;2023-06-24T00:19:11;97909.18;;;17.26;71.33
73106;BME280;61559;50.476;15.588;2023-06-24T00:21:39;97900.48;;;17.19;71.18
73106;BME280;61559;50.476;15.588;2023-06-24T00:24:08;97898.35;;;17.14;70.84
73106;BME280;61559;50.476;15.588;2023-06-24T00:26:37;97898.33;;;17.06;70.84
73106;BME280;61559;50.476;15.588;2023-06-24T00:29:05;97901.16;;;16.99;70.70
73106;BME280;61559;50.476;15.588;2023-06-24T00:31:34;97910.84;;;16.93;70.61
73106;BME280;61559;50.476;15.588;2023-06-24T00:34:02;97907.20;;;16.87;70.37
73106;BME280;61559;50.476;15.588;2023-06-24T00:36:31;97909.17;;;16.79;70.38
73106;BME280;61559;50.476;15.588;2023-06-24T00:39:00;97908.10;;;16.75;70.37
73106;BME280;61559;50.476;15.588;2023-06-24T00:41:31;97918.17;;;16.73;70.34
73106;BME280;61559;50.476;15.588;2023-06-24T00:44:00;97925.57;;;16.68;69.94
73106;BME280;61559;50.476;15.588;2023-06-24T00:46:29;97927.30;;;16.64;70.09
73106;BME280;61559;50.476;15.588;2023-06-24T00:48:59;97930.05;;;16.61;69.77
73106;BME280;61559;50.476;15.588;2023-06-24T00:51:28;97933.00;;;16.58;69.68
73106;BME280;61559;50.476;15.588;2023-06-24T00:53:59;97936.55;;;16.54;69.55
73106;BME280;61559;50.476;15.588;2023-06-24T00:56:33;97945.13;;;16.52;69.58
73106;BME280;61559;50.476;15.588;2023-06-24T00:59:03;97952.66;;;16.51;69.58
73106;BME280;61559;50.476;15.588;2023-06-24T01:01:33;97957.92;;;16.50;69.21
73106;BME280;61559;50.476;15.588;2023-06-24T01:04:04;97967.55;;;16.49;69.20
73106;BME280;61559;50.476;15.588;2023-06-24T01:06:35;97969.98;;;16.48;69.30
73106;BME280;61559;50.476;15.588;2023-06-24T01:09:04;97974.93;;;16.50;69.33
73106;BME280;61559;50.476;15.588;2023-06-24T01:11:32;97979.86;;;16.51;68.89
73106;BME280;61559;50.476;15.588;2023-06-24T01:14:09;97979.14;;;16.49;68.89
73106;BME280;61559;50.476;15.588;2023-06-24T01:16:42;97979.02;;;16.47;68.88
73106;BME280;61559;50.476;15.588;2023-06-24T01:19:27;97979.81;;;16.43;68.77
73106;BME280;61559;50.476;15.588;2023-06-24T01:22:08;97978.56;;;16.37;68.41
73106;BME280;61559;50.476;15.588;2023-06-24T01:24:51;97979.45;;;16.34;68.48
73106;BME280;61559;50.476;15.588;2023-06-24T01:30:41;97971.08;;;16.26;68.36
73106;BME280;61559;50.476;15.588;2023-06-24T01:33:19;97975.95;;;16.25;68.43
73106;BME280;61559;50.476;15.588;2023-06-24T01:35:50;97978.66;;;16.24;68.27
73106;BME280;61559;50.476;15.588;2023-06-24T01:38:27;97974.86;;;16.24;67.87
73106;BME280;61559;50.476;15.588;2023-06-24T01:41:00;97981.71;;;16.24;67.83
73106;BME280;61559;50.476;15.588;2023-06-24T01:43:30;97982.52;;;16.21;67.44
73106;BME280;61559;50.476;15.588;2023-06-24T01:46:01;97981.55;;;16.21;67.67
73106;BME280;61559;50.476;15.588;2023-06-24T01:48:34;97990.13;;;16.22;67.74
73106;BME280;61559;50.476;15.588;2023-06-24T01:51:08;97988.35;;;16.22;67.31
73106;BME280;61559;50.476;15.588;2023-06-24T01:53:39;97986.17;;;16.22;67.33
73106;BME280;61559;50.476;15.588;2023-06-24T01:56:14;97978.07;;;16.21;67.50
73106;BME280;61559;50.476;15.588;2023-06-24T01:58:44;97976.35;;;16.21;66.77
73106;BME280;61559;50.476;15.588;2023-06-24T02:01:13;97980.80;;;16.20;66.87
73106;BME280;61559;50.476;15.588;2023-06-24T02:03:43;97982.23;;;16.21;66.73
73106;BME280;61559;50.476;15.588;2023-06-24T02:06:12;97978.34;;;16.23;66.58
73106;BME280;61559;50.476;15.588;2023-06-24T02:08:42;97976.39;;;16.25;66.56
73106;BME280;61559;50.476;15.588;2023-06-24T02:11:12;97973.07;;;16.26;66.83
73106;BME280;61559;50.476;15.588;2023-06-24T02:13:43;97974.30;;;16.27;66.49
73106;BME280;61559;50.476;15.588;2023-06-24T02:16:14;97983.82;;;16.28;66.49
73106;BME280;61559;50.476;15.588;2023-06-24T02:18:43;97978.55;;;16.28;66.33
73106;BME280;61559;50.476;15.588;2023-06-24T02:21:13;97983.58;;;16.28;66.32
73106;BME280;61559;50.476;15.588;2023-06-24T02:23:43;97978.91;;;16.25;66.21
73106;BME280;61559;50.476;15.588;2023-06-24T02:26:12;97988.71;;;16.22;66.42
73106;BME280;61559;50.476;15.588;2023-06-24T02:28:41;97989.98;;;16.20;66.64
73106;BME280;61559;50.476;15.588;2023-06-24T02:31:13;97992.47;;;16.21;66.95
73106;BME280;61559;50.476;15.588;2023-06-24T02:33:43;97994.36;;;16.23;67.13
73106;BME280;61559;50.476;15.588;2023-06-24T02:36:11;97996.86;;;16.24;67.39
73106;BME280;61559;50.476;15.588;2023-06-24T02:38:40;98002.33;;;16.20;67.59
73106;BME280;61559;50.476;15.588;2023-06-24T02:41:08;98005.15;;;16.15;67.82
73106;BME280;61559;50.476;15.588;2023-06-24T02:43:37;98012.21;;;16.07;67.98
73106;BME280;61559;50.476;15.588;2023-06-24T02:46:06;98017.83;;;16.04;68.28
73106;BME280;61559;50.476;15.588;2023-06-24T02:48:35;98016.15;;;16.02;68.36
73106;BME280;61559;50.476;15.588;2023-06-24T02:51:05;98018.86;;;15.98;68.60
73106;BME280;61559;50.476;15.588;2023-06-24T02:53:35;98017.65;;;15.95;68.72
73106;BME280;61559;50.476;15.588;2023-06-24T02:56:06;98019.35;;;15.92;68.95
73106;BME280;61559;50.476;15.588;2023-06-24T02:58:37;98020.85;;;15.88;68.86
73106;BME280;61559;50.476;15.588;2023-06-24T03:01:07;98023.71;;;15.86;68.99
73106;BME280;61559;50.476;15.588;2023-06-24T03:03:36;98027.71;;;15.86;69.07
73106;BME280;61559;50.476;15.588;2023-06-24T03:06:05;98027.48;;;15.86;69.18
73106;BME280;61559;50.476;15.588;2023-06-24T03:08:34;98034.63;;;15.86;69.23
73106;BME280;61559;50.476;15.588;2023-06-24T03:11:02;98037.35;;;15.88;69.05
73106;BME280;61559;50.476;15.588;2023-06-24T03:13:31;98039.31;;;15.89;68.83
73106;BME280;61559;50.476;15.588;2023-06-24T03:15:59;98043.83;;;15.89;68.83
73106;BME280;61559;50.476;15.588;2023-06-24T03:18:27;98052.64;;;15.91;68.76
73106;BME280;61559;50.476;15.588;2023-06-24T03:20:56;98058.52;;;15.92;68.64
73106;BME280;61559;50.476;15.588;2023-06-24T03:23:25;98065.77;;;15.93;68.80
73106;BME280;61559;50.476;15.588;2023-06-24T03:25:53;98066.02;;;15.92;69.18
73106;BME280;61559;50.476;15.588;2023-06-24T03:28:22;98071.11;;;15.90;69.47
73106;BME280;61559;50.476;15.588;2023-06-24T03:30:50;98075.17;;;15.90;69.81
73106;BME280;61559;50.476;15.588;2023-06-24T03:33:19;98076.48;;;15.86;70.21
73106;BME280;61559;50.476;15.588;2023-06-24T03:35:47;98078.84;;;15.76;70.45
73106;BME280;61559;50.476;15.588;2023-06-24T03:38:15;98082.98;;;15.66;71.92
73106;BME280;61559;50.476;15.588;2023-06-24T03:40:44;98086.45;;;15.58;72.79
73106;BME280;61559;50.476;15.588;2023-06-24T03:43:12;98095.13;;;15.51;73.25
73106;BME280;61559;50.476;15.588;2023-06-24T03:45:40;98094.52;;;15.41;73.51
73106;BME280;61559;50.476;15.588;2023-06-24T03:48:09;98098.30;;;15.32;74.11
73106;BME280;61559;50.476;15.588;2023-06-24T03:50:37;98095.85;;;15.27;74.63
73106;BME280;61559;50.476;15.588;2023-06-24T03:53:06;98098.56;;;15.24;75.46
73106;BME280;61559;50.476;15.588;2023-06-24T03:55:35;98103.66;;;15.19;75.87
73106;BME280;61559;50.476;15.588;2023-06-24T03:58:04;98110.30;;;15.16;75.88
73106;BME280;61559;50.476;15.588;2023-06-24T04:00:32;98110.42;;;15.13;76.73
73106;BME280;61559;50.476;15.588;2023-06-24T04:03:01;98114.94;;;15.10;77.39
73106;BME280;61559;50.476;15.588;2023-06-24T04:05:29;98116.74;;;15.06;77.75
73106;BME280;61559;50.476;15.588;2023-06-24T04:07:57;98119.50;;;15.05;78.25
73106;BME280;61559;50.476;15.588;2023-06-24T04:10:26;98117.30;;;15.01;78.72
73106;BME280;61559;50.476;15.588;2023-06-24T04:12:54;98114.70;;;15.00;79.05
73106;BME280;61559;50.476;15.588;2023-06-24T04:15:22;98109.76;;;14.99;79.15
73106;BME280;61559;50.476;15.588;2023-06-24T04:17:51;98110.65;;;14.97;79.41
73106;BME280;61559;50.476;15.588;2023-06-24T04:20:20;98110.30;;;14.98;79.69
73106;BME280;61559;50.476;15.588;2023-06-24T04:22:48;98111.67;;;14.97;79.81
73106;BME280;61559;50.476;15.588;2023-06-24T04:25:17;98113.66;;;14.96;80.11
73106;BME280;61559;50.476;15.588;2023-06-24T04:27:46;98115.67;;;14.94;80.21
73106;BME280;61559;50.476;15.588;2023-06-24T04:30:14;98119.11;;;14.93;80.25
73106;BME280;61559;50.476;15.588;2023-06-24T04:32:42;98124.56;;;14.95;80.56
73106;BME280;61559;50.476;15.588;2023-06-24T04:35:11;98127.40;;;14.95;80.75
73106;BME280;61559;50.476;15.588;2023-06-24T04:37:40;98136.44;;;14.95;80.58
73106;BME280;61559;50.476;15.588;2023-06-24T04:40:10;98134.96;;;14.95;80.50
73106;BME280;61559;50.476;15.588;2023-06-24T04:42:38;98136.61;;;14.96;80.41
73106;BME280;61559;50.476;15.588;2023-06-24T04:45:08;98134.80;;;14.97;80.59
73106;BME280;61559;50.476;15.588;2023-06-24T04:47:36;98138.59;;;14.99;80.83
73106;BME280;61559;50.476;15.588;2023-06-24T04:50:07;98139.80;;;15.00;80.79
73106;BME280;61559;50.476;15.588;2023-06-24T04:52:37;98140.80;;;15.01;80.55
73106;BME280;61559;50.476;15.588;2023-06-24T04:55:08;98138.22;;;15.04;80.92
73106;BME280;61559;50.476;15.588;2023-06-24T04:57:36;98144.09;;;15.06;81.23
73106;BME280;61559;50.476;15.588;2023-06-24T05:00:10;98145.11;;;15.08;80.95
73106;BME280;61559;50.476;15.588;2023-06-24T05:02:38;98144.84;;;15.11;80.88
73106;BME280;61559;50.476;15.588;2023-06-24T05:05:08;98150.59;;;15.15;81.08
73106;BME280;61559;50.476;15.588;2023-06-24T05:07:36;98151.27;;;15.19;81.28
73106;BME280;61559;50.476;15.588;2023-06-24T05:10:06;98154.83;;;15.21;81.12
73106;BME280;61559;50.476;15.588;2023-06-24T05:12:34;98161.19;;;15.23;81.15
73106;BME280;61559;50.476;15.588;2023-06-24T05:15:03;98167.52;;;15.24;81.07
73106;BME280;61559;50.476;15.588;2023-06-24T05:17:32;98170.87;;;15.26;81.34
73106;BME280;61559;50.476;15.588;2023-06-24T05:20:00;98173.45;;;15.31;81.50
73106;BME280;61559;50.476;15.588;2023-06-24T05:22:29;98178.57;;;15.35;81.78
73106;BME280;61559;50.476;15.588;2023-06-24T05:24:57;98183.16;;;15.37;81.39
73106;BME280;61559;50.476;15.588;2023-06-24T05:27:26;98187.70;;;15.40;81.19
73106;BME280;61559;50.476;15.588;2023-06-24T05:29:54;98190.84;;;15.43;80.69
73106;BME280;61559;50.476;15.588;2023-06-24T05:32:23;98188.64;;;15.46;80.60
73106;BME280;61559;50.476;15.588;2023-06-24T05:34:52;98192.35;;;15.46;80.61
73106;BME280;61559;50.476;15.588;2023-06-24T05:37:21;98192.48;;;15.45;80.47
73106;BME280;61559;50.476;15.588;2023-06-24T05:39:49;98197.23;;;15.45;80.84
73106;BME280;61559;50.476;15.588;2023-06-24T05:42:18;98200.26;;;15.45;80.94
73106;BME280;61559;50.476;15.588;2023-06-24T05:44:46;98201.88;;;15.45;81.04
73106;BME280;61559;50.476;15.588;2023-06-24T05:47:14;98203.46;;;15.41;81.21
73106;BME280;61559;50.476;15.588;2023-06-24T05:49:43;98206.96;;;15.39;81.19
73106;BME280;61559;50.476;15.588;2023-06-24T05:52:12;98208.58;;;15.39;81.32
73106;BME280;61559;50.476;15.588;2023-06-24T05:54:40;98211.48;;;15.41;81.38
73106;BME280;61559;50.476;15.588;2023-06-24T05:57:08;98213.14;;;15.45;80.95
73106;BME280;61559;50.476;15.588;2023-06-24T05:59:37;98218.13;;;15.47;80.89
73106;BME280;61559;50.476;15.588;2023-06-24T06:02:06;98216.80;;;15.49;81.12
73106;BME280;61559;50.476;15.588;2023-06-24T06:04:34;98218.05;;;15.52;80.69
73106;BME280;61559;50.476;15.588;2023-06-24T06:07:04;98221.34;;;15.52;80.76
73106;BME280;61559;50.476;15.588;2023-06-24T06:09:32;98220.46;;;15.55;81.11
73106;BME280;61559;50.476;15.588;2023-06-24T06:12:01;98221.32;;;15.57;80.57
73106;BME280;61559;50.476;15.588;2023-06-24T06:14:29;98220.29;;;15.63;81.00
73106;BME280;61559;50.476;15.588;2023-06-24T06:16:57;98226.32;;;15.68;81.25
73106;BME280;61559;50.476;15.588;2023-06-24T06:19:26;98232.25;;;15.74;81.22
73106;BME280;61559;50.476;15.588;2023-06-24T06:21:54;98236.85;;;15.82;81.12
73106;BME280;61559;50.476;15.588;2023-06-24T06:24:23;98240.22;;;15.89;80.78
73106;BME280;61559;50.476;15.588;2023-06-24T06:26:51;98243.61;;;15.95;80.14
73106;BME280;61559;50.476;15.588;2023-06-24T06:29:20;98244.89;;;16.01;79.70
73106;BME280;61559;50.476;15.588;2023-06-24T06:31:48;98243.86;;;16.08;79.76
73106;BME280;61559;50.476;15.588;2023-06-24T06:34:16;98243.44;;;16.13;79.49
73106;BME280;61559;50.476;15.588;2023-06-24T06:36:45;98243.55;;;16.17;79.37
73106;BME280;61559;50.476;15.588;2023-06-24T06:39:13;98241.27;;;16.22;79.08
73106;BME280;61559;50.476;15.588;2023-06-24T06:41:41;98243.27;;;16.27;78.69
73106;BME280;61559;50.476;15.588;2023-06-24T06:44:10;98248.86;;;16.32;78.53
73106;BME280;61559;50.476;15.588;2023-06-24T06:46:38;98250.81;;;16.38;78.15
73106;BME280;61559;50.476;15.588;2023-06-24T06:49:07;98254.36;;;16.45;78.00
73106;BME280;61559;50.476;15.588;2023-06-24T06:51:35;98253.08;;;16.53;77.78
73106;BME280;61559;50.476;15.588;2023-06-24T06:54:04;98253.23;;;16.60;77.70
73106;BME280;61559;50.476;15.588;2023-06-24T06:56:32;98250.25;;;16.66;77.20
73106;BME280;61559;50.476;15.588;2023-06-24T06:59:01;98252.61;;;16.74;77.37
73106;BME280;61559;50.476;15.588;2023-06-24T07:01:29;98253.38;;;16.82;77.02
73106;BME280;61559;50.476;15.588;2023-06-24T07:03:58;98254.45;;;16.91;77.27
73106;BME280;61559;50.476;15.588;2023-06-24T07:06:26;98255.30;;;16.97;76.91
73106;BME280;61559;50.476;15.588;2023-06-24T07:08:55;98260.24;;;17.01;76.44
73106;BME280;61559;50.476;15.588;2023-06-24T07:11:23;98266.34;;;17.04;76.11
73106;BME280;61559;50.476;15.588;2023-06-24T07:13:52;98268.27;;;17.06;76.30
73106;BME280;61559;50.476;15.588;2023-06-24T07:16:21;98268.31;;;17.08;76.68
73106;BME280;61559;50.476;15.588;2023-06-24T07:18:49;98267.48;;;17.10;76.83
73106;BME280;61559;50.476;15.588;2023-06-24T07:21:17;98263.10;;;17.10;76.89
73106;BME280;61559;50.476;15.588;2023-06-24T07:23:46;98264.86;;;17.12;76.67
73106;BME280;61559;50.476;15.588;2023-06-24T07:26:14;98262.28;;;17.15;76.54
73106;BME280;61559;50.476;15.588;2023-06-24T07:28:42;98261.70;;;17.19;76.63
73106;BME280;61559;50.476;15.588;2023-06-24T07:31:18;98261.71;;;17.24;76.98
73106;BME280;61559;50.476;15.588;2023-06-24T07:33:46;98259.12;;;17.28;76.66
73106;BME280;61559;50.476;15.588;2023-06-24T07:36:15;98264.01;;;17.33;76.52
73106;BME280;61559;50.476;15.588;2023-06-24T07:38:43;98264.73;;;17.41;76.65
73106;BME280;61559;50.476;15.588;2023-06-24T07:41:12;98268.34;;;17.51;76.79
73106;BME280;61559;50.476;15.588;2023-06-24T07:43:40;98272.80;;;17.62;76.70
73106;BME280;61559;50.476;15.588;2023-06-24T07:46:08;98272.41;;;17.69;76.18
73106;BME280;61559;50.476;15.588;2023-06-24T07:48:37;98276.67;;;17.76;76.23
73106;BME280;61559;50.476;15.588;2023-06-24T07:51:06;98274.65;;;17.87;76.41
73106;BME280;61559;50.476;15.588;2023-06-24T07:53:34;98274.30;;;18.00;75.83
73106;BME280;61559;50.476;15.588;2023-06-24T07:56:03;98277.99;;;18.14;75.84
73106;BME280;61559;50.476;15.588;2023-06-24T07:58:33;98277.55;;;18.27;75.42
73106;BME280;61559;50.476;15.588;2023-06-24T08:01:02;98280.90;;;18.41;75.54
73106;BME280;61559;50.476;15.588;2023-06-24T08:03:31;98278.52;;;18.53;75.32
73106;BME280;61559;50.476;15.588;2023-06-24T08:05:59;98278.08;;;18.60;74.25
73106;BME280;61559;50.476;15.588;2023-06-24T08:08:29;98277.81;;;18.71;74.43
73106;BME280;61559;50.476;15.588;2023-06-24T08:10:57;98281.45;;;18.80;74.37
73106;BME280;61559;50.476;15.588;2023-06-24T08:13:26;98283.40;;;18.92;74.09
73106;BME280;61559;50.476;15.588;2023-06-24T08:15:54;98285.25;;;19.06;73.91
73106;BME280;61559;50.476;15.588;2023-06-24T08:18:23;98288.14;;;19.24;74.31
73106;BME280;61559;50.476;15.588;2023-06-24T08:20:51;98290.64;;;19.45;74.01
73106;BME280;61559;50.476;15.588;2023-06-24T08:23:20;98290.41;;;19.60;72.77
73106;BME280;61559;50.476;15.588;2023-06-24T08:25:48;98291.58;;;19.66;71.56
73106;BME280;61559;50.476;15.588;2023-06-24T08:28:16;98300.66;;;19.78;71.98
73106;BME280;61559;50.476;15.588;2023-06-24T08:30:45;98301.48;;;19.91;70.96
73106;BME280;61559;50.476;15.588;2023-06-24T08:33:13;98308.45;;;20.01;71.01
73106;BME280;61559;50.476;15.588;2023-06-24T08:35:41;98307.00;;;20.14;69.74
73106;BME280;61559;50.476;15.588;2023-06-24T08:38:10;98304.85;;;20.14;68.16
73106;BME280;61559;50.476;15.588;2023-06-24T08:40:39;98308.77;;;20.12;67.66
73106;BME280;61559;50.476;15.588;2023-06-24T08:43:07;98308.31;;;20.11;67.42
73106;BME280;61559;50.476;15.588;2023-06-24T08:45:36;98311.29;;;20.10;68.46
73106;BME280;61559;50.476;15.588;2023-06-24T08:48:06;98311.95;;;20.15;68.99
73106;BME280;61559;50.476;15.588;2023-06-24T08:50:37;98312.89;;;20.22;69.12
73106;BME280;61559;50.476;15.588;2023-06-24T08:53:09;98316.17;;;20.31;67.74
73106;BME280;61559;50.476;15.588;2023-06-24T08:55:41;98314.91;;;20.31;67.13
73106;BME280;61559;50.476;15.588;2023-06-24T08:58:11;98310.83;;;20.41;67.82
73106;BME280;61559;50.476;15.588;2023-06-24T09:00:39;98310.05;;;20.53;67.15
73106;BME280;61559;50.476;15.588;2023-06-24T09:03:10;98307.99;;;20.61;66.58
73106;BME280;61559;50.476;15.588;2023-06-24T09:05:39;98311.08;;;20.68;65.48
73106;BME280;61559;50.476;15.588;2023-06-24T09:08:08;98308.89;;;20.76;66.00
73106;BME280;61559;50.476;15.588;2023-06-24T09:10:37;98313.86;;;20.81;65.71
73106;BME280;61559;50.476;15.588;2023-06-24T09:13:06;98318.39;;;20.83;65.97
73106;BME280;61559;50.476;15.588;2023-06-24T09:15:36;98322.90;;;20.91;65.46
73106;BME280;61559;50.476;15.588;2023-06-24T09:18:06;98323.61;;;20.99;65.96
73106;BME280;61559;50.476;15.588;2023-06-24T09:20:34;98323.60;;;21.10;65.29
73106;BME280;61559;50.476;15.588;2023-06-24T09:23:07;98325.47;;;21.10;64.44
73106;BME280;61559;50.476;15.588;2023-06-24T09:25:35;98321.53;;;21.13;64.91
73106;BME280;61559;50.476;15.588;2023-06-24T09:28:05;98316.21;;;21.17;65.32
73106;BME280;61559;50.476;15.588;2023-06-24T09:30:33;98318.08;;;21.21;64.73
73106;BME280;61559;50.476;15.588;2023-06-24T09:33:02;98313.45;;;21.19;64.31
73106;BME280;61559;50.476;15.588;2023-06-24T09:35:35;98315.14;;;21.21;65.08
73106;BME280;61559;50.476;15.588;2023-06-24T09:38:05;98315.15;;;21.27;64.86
73106;BME280;61559;50.476;15.588;2023-06-24T09:40:35;98313.91;;;21.23;63.89
73106;BME280;61559;50.476;15.588;2023-06-24T09:43:04;98314.92;;;21.21;63.54
73106;BME280;61559;50.476;15.588;2023-06-24T09:45:33;98314.79;;;21.12;63.47
73106;BME280;61559;50.476;15.588;2023-06-24T09:48:02;98312.98;;;21.11;64.20
73106;BME280;61559;50.476;15.588;2023-06-24T09:50:32;98305.90;;;21.19;65.32
73106;BME280;61559;50.476;15.588;2023-06-24T09:53:00;98304.15;;;21.21;63.86
73106;BME280;61559;50.476;15.588;2023-06-24T09:55:29;98304.97;;;21.21;63.93
73106;BME280;61559;50.476;15.588;2023-06-24T09:57:58;98304.34;;;21.36;64.87
73106;BME280;61559;50.476;15.588;2023-06-24T10:00:27;98302.75;;;21.48;62.79
73106;BME280;61559;50.476;15.588;2023-06-24T10:02:56;98302.16;;;21.57;62.95
73106;BME280;61559;50.476;15.588;2023-06-24T10:05:28;98298.20;;;21.65;61.05
73106;BME280;61559;50.476;15.588;2023-06-24T10:07:57;98296.63;;;21.64;59.18
73106;BME280;61559;50.476;15.588;2023-06-24T10:10:25;98297.89;;;21.64;59.27
73106;BME280;61559;50.476;15.588;2023-06-24T10:12:54;98296.52;;;21.70;58.46
73106;BME280;61559;50.476;15.588;2023-06-24T10:15:22;98295.17;;;21.80;58.89
73106;BME280;61559;50.476;15.588;2023-06-24T10:17:51;98299.54;;;21.89;58.80
73106;BME280;61559;50.476;15.588;2023-06-24T10:20:39;98299.92;;;21.90;56.84
73106;BME280;61559;50.476;15.588;2023-06-24T10:23:07;98300.29;;;21.89;58.36
73106;BME280;61559;50.476;15.588;2023-06-24T10:25:37;98300.23;;;21.91;58.36
73106;BME280;61559;50.476;15.588;2023-06-24T10:28:05;98298.48;;;21.97;57.29
73106;BME280;61559;50.476;15.588;2023-06-24T10:30:36;98290.29;;;22.07;57.23
73106;BME280;61559;50.476;15.588;2023-06-24T10:33:10;98281.76;;;22.18;57.66
73106;BME280;61559;50.476;15.588;2023-06-24T10:35:42;98280.22;;;22.33;57.15
73106;BME280;61559;50.476;15.588;2023-06-24T10:38:11;98277.49;;;22.40;57.09
73106;BME280;61559;50.476;15.588;2023-06-24T10:40:41;98276.48;;;22.47;57.92
73106;BME280;61559;50.476;15.588;2023-06-24T10:43:29;98272.39;;;22.50;56.17
73106;BME280;61559;50.476;15.588;2023-06-24T10:45:58;98271.94;;;22.51;55.66
73106;BME280;61559;50.476;15.588;2023-06-24T10:48:26;98274.04;;;22.53;56.01
73106;BME280;61559;50.476;15.588;2023-06-24T10:50:55;98272.23;;;22.57;54.96
73106;BME280;61559;50.476;15.588;2023-06-24T10:53:23;98266.08;;;22.67;56.06
73106;BME280;61559;50.476;15.588;2023-06-24T10:55:52;98266.34;;;22.73;54.51
73106;BME280;61559;50.476;15.588;2023-06-24T10:58:25;98263.77;;;22.80;55.39
73106;BME280;61559;50.476;15.588;2023-06-24T11:00:53;98260.46;;;22.94;55.27
73106;BME280;61559;50.476;15.588;2023-06-24T11:03:23;98256.06;;;23.03;54.61
73106;BME280;61559;50.476;15.588;2023-06-24T11:05:52;98249.14;;;23.13;54.10
73106;BME280;61559;50.476;15.588;2023-06-24T11:08:21;98247.67;;;23.27;54.29
73106;BME280;61559;50.476;15.588;2023-06-24T11:10:49;98244.23;;;23.40;53.97
73106;BME280;61559;50.476;15.588;2023-06-24T11:13:20;98247.09;;;23.44;50.68
73106;BME280;61559;50.476;15.588;2023-06-24T11:15:49;98242.65;;;23.39;48.63
73106;BME280;61559;50.476;15.588;2023-06-24T11:18:17;98240.33;;;23.32;48.88
73106;BME280;61559;50.476;15.588;2023-06-24T11:20:45;98234.16;;;23.29;47.97
73106;BME280;61559;50.476;15.588;2023-06-24T11:23:14;98236.63;;;23.25;48.19
73106;BME280;61559;50.476;15.588;2023-06-24T11:25:43;98239.55;;;23.26;47.69
73106;BME280;61559;50.476;15.588;2023-06-24T11:28:16;98243.37;;;23.19;47.38
73106;BME280;61559;50.476;15.588;2023-06-24T11:30:49;98242.03;;;23.02;48.18
73106;BME280;61559;50.476;15.588;2023-06-24T11:33:27;98239.56;;;22.86;47.58
73106;BME280;61559;50.476;15.588;2023-06-24T11:35:56;98239.23;;;22.72;47.71
73106;BME280;61559;50.476;15.588;2023-06-24T11:38:25;98236.13;;;22.64;48.39
73106;BME280;61559;50.476;15.588;2023-06-24T11:40:59;98231.47;;;22.63;47.09
73106;BME280;61559;50.476;15.588;2023-06-24T11:43:28;98223.63;;;22.69;46.50
73106;BME280;61559;50.476;15.588;2023-06-24T11:45:57;98219.52;;;22.76;47.94
73106;BME280;61559;50.476;15.588;2023-06-24T11:48:28;98220.12;;;22.84;48.23
73106;BME280;61559;50.476;15.588;2023-06-24T11:50:57;98226.52;;;22.90;47.27
73106;BME280;61559;50.476;15.588;2023-06-24T11:53:30;98223.86;;;22.84;45.79
73106;BME280;61559;50.476;15.588;2023-06-24T11:56:07;98218.02;;;22.75;45.76
73106;BME280;61559;50.476;15.588;2023-06-24T11:58:35;98215.48;;;22.77;45.21
73106;BME280;61559;50.476;15.588;2023-06-24T12:01:06;98212.56;;;22.87;44.73
73106;BME280;61559;50.476;15.588;2023-06-24T12:03:34;98209.73;;;22.96;44.53
73106;BME280;61559;50.476;15.588;2023-06-24T12:06:02;98206.54;;;23.05;44.69
73106;BME280;61559;50.476;15.588;2023-06-24T12:08:31;98204.30;;;23.10;44.87
73106;BME280;61559;50.476;15.588;2023-06-24T12:11:19;98203.11;;;23.16;44.89
73106;BME280;61559;50.476;15.588;2023-06-24T12:13:48;98205.30;;;23.20;44.79
73106;BME280;61559;50.476;15.588;2023-06-24T12:16:16;98205.15;;;23.23;44.82
73106;BME280;61559;50.476;15.588;2023-06-24T12:18:45;98205.15;;;23.19;45.03
73106;BME280;61559;50.476;15.588;2023-06-24T12:21:13;98209.27;;;23.12;45.89
73106;BME280;61559;50.476;15.588;2023-06-24T12:23:41;98204.58;;;23.03;46.28
73106;BME280;61559;50.476;15.588;2023-06-24T12:26:10;98199.77;;;23.00;46.86
73106;BME280;61559;50.476;15.588;2023-06-24T12:28:39;98198.86;;;23.02;46.61
73106;BME280;61559;50.476;15.588;2023-06-24T12:31:07;98196.70;;;23.07;46.16
73106;BME280;61559;50.476;15.588;2023-06-24T12:33:35;98189.38;;;23.18;46.51
73106;BME280;61559;50.476;15.588;2023-06-24T12:36:05;98185.41;;;23.28;46.26
73106;BME280;61559;50.476;15.588;2023-06-24T12:38:33;98191.13;;;23.33;45.23
73106;BME280;61559;50.476;15.588;2023-06-24T12:41:03;98195.33;;;23.24;45.14
73106;BME280;61559;50.476;15.588;2023-06-24T12:43:32;98194.86;;;23.15;45.48
73106;BME280;61559;50.476;15.588;2023-06-24T12:46:00;98191.46;;;23.11;45.66
73106;BME280;61559;50.476;15.588;2023-06-24T12:48:29;98191.39;;;23.14;46.70
73106;BME280;61559;50.476;15.588;2023-06-24T12:50:58;98187.36;;;23.22;45.61
73106;BME280;61559;50.476;15.588;2023-06-24T12:53:26;98183.77;;;23.30;44.84
73106;BME280;61559;50.476;15.588;2023-06-24T12:55:55;98177.54;;;23.40;46.04
73106;BME280;61559;50.476;15.588;2023-06-24T12:58:24;98170.41;;;23.55;44.87
73106;BME280;61559;50.476;15.588;2023-06-24T13:00:53;98174.48;;;23.67;44.16
73106;BME280;61559;50.476;15.588;2023-06-24T13:03:21;98173.20;;;23.75;42.61
73106;BME280;61559;50.476;15.588;2023-06-24T13:05:50;98175.76;;;23.80;42.92